Terminal Aerodrome Forecast
Issued by NWS Wilmington, OH

Current Version | Previous Version | Text Only | Print | Product List | Glossary Off
Versions: 1 2 3 4 5 6 7 8 9 10 11 12 13 14 15 16 17 18 19

373
FTUS41 KILN 081537 AAA
TAFDAY
TAF AMD
KDAY 081537Z 0816/0912 27009KT P6SM -SN BKN015 OVC040
      TEMPO 0817/0820 5SM -SN OVC007
     FM090000 27009KT P6SM -SN BKN015 OVC025=

USA.gov is the U.S. government's official web portal to all federal, state and local government web resources and services.